Private Wetterstation Wechselburg
Wetterdaten: Woche 06.02.23 - 12.02.23 (KW6)
Datum Zeit Temp. +2m Bodentemp. Temp.+5cm Temp. Wind Windchill X Diff Temp. Feuchte +2m Feuchte +5cm Luftdruck Regen Wind Richtung Sonnenschein Taupunkt Windchill Windben
06.02.2023 00:00 -5,5 C 5,0 C 73,0 C -6,0 C -7,1 C 0,0 C 86 % 99 % 1039,2 hPa 0,0 l/m 0,0 km/h (0 Bft) N 0,00 h -7,4 C -7,1 C 0,0 km/h (0 Bft)
06.02.2023 01:00 -5,7 C 4,9 C 73,0 C -6,2 C -7,4 C 0,0 C 87 % 99 % 1039,2 hPa 0,0 l/m 0,0 km/h (0 Bft) N 0,00 h -7,5 C -7,4 C 0,0 km/h (0 Bft)
06.02.2023 02:00 -6,0 C 4,8 C 73,0 C -6,6 C -7,8 C 0,0 C 87 % 99 % 1039,2 hPa 0,0 l/m 0,0 km/h (0 Bft) N 0,00 h -7,8 C -7,8 C 0,0 km/h (0 Bft)
06.02.2023 03:00 -6,0 C 4,7 C 73,0 C -6,5 C -7,4 C 0,0 C 87 % 99 % 1039,2 hPa 0,0 l/m 0,0 km/h (0 Bft) N 0,00 h -7,8 C -7,4 C 0,0 km/h (0 Bft)
06.02.2023 04:00 -6,0 C 4,6 C 73,0 C -6,4 C -7,4 C 0,0 C 88 % 99 % 1038,9 hPa 0,0 l/m 0,0 km/h (0 Bft) N 0,00 h -7,6 C -7,4 C 0,0 km/h (0 Bft)
06.02.2023 05:00 -5,9 C 4,5 C 73,0 C -6,2 C -6,9 C 0,0 C 88 % 99 % 1038,4 hPa 0,0 l/m 0,0 km/h (0 Bft) N 0,00 h -7,5 C -6,9 C 0,0 km/h (0 Bft)
06.02.2023 06:00 -4,8 C 4,5 C 73,0 C -4,6 C -4,6 C 0,2 C 89 % 99 % 1038,4 hPa 0,0 l/m 0,0 km/h (0 Bft) N 0,00 h -6,4 C -4,6 C 0,0 km/h (0 Bft)
06.02.2023 07:00 -3,6 C 4,5 C 61,1 C -3,5 C -3,5 C 0,1 C 89 % 99 % 1037,9 hPa 0,0 l/m 0,0 km/h (0 Bft) N 0,00 h -5,1 C -3,5 C 0,0 km/h (0 Bft)
06.02.2023 08:00 -2,8 C 4,4 C 3,5 C -2,6 C -2,6 C 0,2 C 89 % 84 % 1037,9 hPa 0,0 l/m 0,0 km/h (0 Bft) N 0,00 h -4,4 C -2,6 C 0,0 km/h (0 Bft)
06.02.2023 09:00 -2,2 C 4,3 C 8,0 C -1,8 C -1,8 C 0,4 C 89 % 99 % 1037,9 hPa 0,0 l/m 0,0 km/h (0 Bft) N 0,00 h -3,7 C -1,8 C 0,0 km/h (0 Bft)
06.02.2023 10:00 -1,5 C 4,3 C 15,1 C -0,8 C -0,8 C 0,7 C 89 % 99 % 1037,9 hPa 0,0 l/m 0,0 km/h (0 Bft) N 0,00 h -3,1 C -0,8 C 0,0 km/h (0 Bft)
06.02.2023 11:00 -0,9 C 4,3 C 21,4 C -0,2 C -0,2 C 0,7 C 89 % 99 % 1037,9 hPa 0,0 l/m 0,0 km/h (0 Bft) N 0,00 h -2,5 C -0,2 C 0,0 km/h (0 Bft)
06.02.2023 12:00 -0,5 C 4,3 C 23,7 C 0,1 C 0,1 C 0,6 C 89 % 99 % 1037,9 hPa 0,0 l/m 0,1 km/h (0 Bft) N 0,00 h -2,1 C 0,1 C 0,0 km/h (0 Bft)
06.02.2023 13:00 -0,2 C 4,3 C 24,1 C 0,7 C 0,7 C 0,9 C 89 % 99 % 1037,3 hPa 0,0 l/m 0,0 km/h (0 Bft) N 0,00 h -1,8 C 0,7 C 0,0 km/h (0 Bft)
06.02.2023 14:00 -0,2 C 4,3 C 24,1 C 0,5 C 0,5 C 0,7 C 89 % 99 % 1036,8 hPa 0,0 l/m 0,0 km/h (0 Bft) N 0,00 h -1,8 C 0,5 C 0,0 km/h (0 Bft)
06.02.2023 15:00 -0,4 C 4,3 C 22,4 C 0,1 C 0,1 C 0,5 C 89 % 99 % 1037,0 hPa 0,0 l/m 0,0 km/h (0 Bft) N 0,00 h -2,0 C 0,1 C 0,0 km/h (0 Bft)
06.02.2023 16:00 -0,6 C 4,3 C 17,5 C -0,7 C -0,7 C 0,0 C 89 % 99 % 1037,7 hPa 0,0 l/m 0,0 km/h (0 Bft) N 0,00 h -2,2 C -0,7 C 0,0 km/h (0 Bft)
06.02.2023 17:00 -1,1 C 4,3 C 12,7 C -1,3 C -1,7 C 0,0 C 89 % 99 % 1038,0 hPa 0,0 l/m 0,0 km/h (0 Bft) N 0,00 h -2,7 C -1,7 C 0,0 km/h (0 Bft)
06.02.2023 18:00 -2,2 C 4,3 C 5,3 C -2,5 C -3,1 C 0,0 C 89 % 99 % 1039,0 hPa 0,0 l/m 0,0 km/h (0 Bft) N 0,00 h -3,8 C -3,1 C 0,0 km/h (0 Bft)
06.02.2023 19:00 -3,3 C 4,3 C 49,7 C -3,6 C -4,3 C 0,0 C 88 % 99 % 1039,0 hPa 0,0 l/m 0,0 km/h (0 Bft) N 0,00 h -4,9 C -4,3 C 0,0 km/h (0 Bft)
06.02.2023 20:00 -4,8 C 4,3 C 73,0 C -5,3 C -6,1 C 0,0 C 88 % 99 % 1039,0 hPa 0,0 l/m 0,0 km/h (0 Bft) N 0,00 h -6,5 C -6,1 C 0,0 km/h (0 Bft)
06.02.2023 21:00 -5,0 C 4,3 C 73,0 C -5,1 C -5,4 C 0,0 C 89 % 99 % 1040,0 hPa 0,0 l/m 0,0 km/h (0 Bft) N 0,00 h -6,5 C -5,4 C 0,0 km/h (0 Bft)
06.02.2023 22:00 -5,1 C 4,1 C 73,0 C -5,3 C -5,7 C 0,0 C 89 % 99 % 1040,8 hPa 0,0 l/m 0,0 km/h (0 Bft) N 0,00 h -6,7 C -5,7 C 0,0 km/h (0 Bft)
06.02.2023 23:00 -6,6 C 4,2 C 72,6 C -7,1 C -8,2 C 0,0 C 88 % 99 % 1041,0 hPa 0,0 l/m 0,0 km/h (0 Bft) N 0,00 h -8,2 C -8,2 C 0,0 km/h (0 Bft)
07.02.2023 00:00 -8,1 C 4,1 C 64,4 C -8,5 C -9,4 C 0,0 C 88 % 99 % 1040,8 hPa 0,0 l/m 0,0 km/h (0 Bft) N 0,00 h -9,8 C -9,4 C 0,0 km/h (0 Bft)
07.02.2023 01:00 -9,3 C 4,0 C 58,6 C -9,8 C -10,7 C 0,0 C 88 % 99 % 1040,8 hPa 0,0 l/m 0,0 km/h (0 Bft) N 0,00 h -10,9 C -10,7 C 0,0 km/h (0 Bft)
07.02.2023 02:00 -10,2 C 3,9 C 54,3 C -10,7 C -11,8 C 0,0 C 88 % 99 % 1040,9 hPa 0,0 l/m 0,0 km/h (0 Bft) N 0,00 h -11,8 C -11,8 C 0,0 km/h (0 Bft)
07.02.2023 03:00 -10,7 C 3,8 C 52,5 C -11,2 C -12,2 C 0,0 C 88 % 99 % 1041,0 hPa 0,0 l/m 0,0 km/h (0 Bft) N 0,00 h -12,3 C -12,2 C 0,0 km/h (0 Bft)
07.02.2023 04:00 -10,9 C 3,7 C 53,8 C -11,3 C -12,1 C 0,0 C 88 % 99 % 1040,9 hPa 0,0 l/m 0,0 km/h (0 Bft) N 0,00 h -12,5 C -12,1 C 0,0 km/h (0 Bft)
07.02.2023 05:00 -10,4 C 3,7 C 56,7 C -10,6 C -11,1 C 0,0 C 88 % 99 % 1040,8 hPa 0,0 l/m 0,0 km/h (0 Bft) N 0,00 h -12,0 C -11,1 C 0,0 km/h (0 Bft)
07.02.2023 06:00 -10,3 C 3,7 C 57,7 C -10,5 C -10,8 C 0,0 C 88 % 99 % 1040,8 hPa 0,0 l/m 0,0 km/h (0 Bft) N 0,00 h -11,8 C -10,8 C 0,0 km/h (0 Bft)
07.02.2023 07:00 -10,4 C 3,6 C 56,5 C -10,7 C -11,3 C 0,0 C 88 % 99 % 1040,8 hPa 0,0 l/m 0,0 km/h (0 Bft) N 0,00 h -12,0 C -11,3 C 0,0 km/h (0 Bft)
07.02.2023 08:00 -10,1 C 3,4 C 58,4 C -10,0 C -10,3 C 0,2 C 89 % 99 % 1040,8 hPa 0,0 l/m 0,0 km/h (0 Bft) N 0,00 h -11,7 C -10,3 C 0,0 km/h (0 Bft)
07.02.2023 09:00 -9,2 C 3,4 C 67,6 C -8,0 C -8,0 C 1,2 C 89 % 99 % 1041,4 hPa 0,0 l/m 0,0 km/h (0 Bft) N 0,00 h -10,7 C -8,0 C 0,0 km/h (0 Bft)
07.02.2023 10:00 -7,5 C 3,5 C 72,5 C -5,1 C -5,1 C 2,4 C 89 % 99 % 1041,8 hPa 0,0 l/m 0,0 km/h (0 Bft) N 0,00 h -9,0 C -5,1 C 0,0 km/h (0 Bft)
07.02.2023 11:00 -6,6 C 3,4 C 73,0 C -3,9 C -3,9 C 2,6 C 89 % 99 % 1041,8 hPa 0,0 l/m 0,0 km/h (0 Bft) N 0,00 h -8,1 C -3,9 C 0,0 km/h (0 Bft)
07.02.2023 12:00 -5,3 C 3,3 C 73,0 C -1,1 C -1,1 C 4,2 C 89 % 99 % 1041,8 hPa 0,0 l/m 0,0 km/h (0 Bft) N 0,75 h -6,8 C -1,1 C 0,0 km/h (0 Bft)
07.02.2023 13:00 -3,2 C 3,2 C 73,0 C 2,4 C 2,4 C 5,6 C 89 % 99 % 1041,7 hPa 0,0 l/m 0,0 km/h (0 Bft) N 1,00 h -4,7 C 2,4 C 0,0 km/h (0 Bft)
07.02.2023 14:00 -1,1 C 3,1 C 66,9 C 4,6 C 4,6 C 5,7 C 87 % 99 % 1041,2 hPa 0,7 l/m 0,0 km/h (0 Bft) N 1,00 h -3,0 C 4,6 C 0,0 km/h (0 Bft)
07.02.2023 15:00 -0,5 C 3,1 C 6,8 C 3,6 C 3,6 C 4,1 C 82 % 99 % 1041,2 hPa 0,0 l/m 0,0 km/h (0 Bft) N 1,00 h -3,2 C 3,6 C 0,0 km/h (0 Bft)
07.02.2023 16:00 -2,0 C 3,2 C 73,0 C -0,5 C -0,6 C 1,5 C 82 % 99 % 1041,2 hPa 0,0 l/m 0,0 km/h (0 Bft) N 0,75 h -4,7 C -0,6 C 0,0 km/h (0 Bft)
07.02.2023 17:00 -3,5 C 3,3 C 73,0 C -4,1 C -5,1 C 0,0 C 82 % 99 % 1041,2 hPa 0,0 l/m 0,0 km/h (0 Bft) N 0,00 h -6,2 C -5,1 C 0,0 km/h (0 Bft)
07.02.2023 18:00 -5,3 C 3,3 C 73,0 C -5,9 C -7,0 C 0,0 C 83 % 99 % 1041,2 hPa 0,0 l/m 0,0 km/h (0 Bft) N 0,00 h -7,7 C -7,0 C 0,0 km/h (0 Bft)
07.02.2023 19:00 -6,5 C 3,4 C 72,1 C -7,1 C -8,1 C 0,0 C 84 % 99 % 1041,2 hPa 0,0 l/m 0,0 km/h (0 Bft) N 0,00 h -8,8 C -8,1 C 0,0 km/h (0 Bft)
07.02.2023 20:00 -7,4 C 3,4 C 69,4 C -7,8 C -8,8 C 0,0 C 85 % 99 % 1041,2 hPa 0,0 l/m 0,0 km/h (0 Bft) N 0,00 h -9,5 C -8,8 C 0,0 km/h (0 Bft)
07.02.2023 21:00 -7,8 C 3,4 C 68,5 C -8,1 C -8,6 C 0,0 C 86 % 99 % 1041,2 hPa 0,0 l/m 0,0 km/h (0 Bft) N 0,00 h -9,8 C -8,6 C 0,0 km/h (0 Bft)
07.02.2023 22:00 -7,7 C 3,4 C 70,4 C -7,9 C -8,4 C 0,0 C 87 % 99 % 1041,2 hPa 0,0 l/m 0,0 km/h (0 Bft) N 0,00 h -9,5 C -8,4 C 0,0 km/h (0 Bft)
07.02.2023 23:00 -7,7 C 3,3 C 72,9 C -7,8 C -8,1 C 0,0 C 87 % 99 % 1041,2 hPa 0,0 l/m 0,0 km/h (0 Bft) N 0,00 h -9,5 C -8,1 C 0,0 km/h (0 Bft)
08.02.2023 00:00 -8,0 C 3,3 C 71,9 C -8,2 C -8,5 C 0,0 C 87 % 99 % 1041,2 hPa 0,0 l/m 0,0 km/h (0 Bft) N 0,00 h -9,7 C -8,5 C 0,0 km/h (0 Bft)
08.02.2023 01:00 -8,7 C 3,3 C 67,6 C -9,0 C -9,5 C 0,0 C 88 % 99 % 1041,2 hPa 0,0 l/m 0,0 km/h (0 Bft) N 0,00 h -10,4 C -9,5 C 0,0 km/h (0 Bft)
08.02.2023 02:00 -9,4 C 3,3 C 62,0 C -9,8 C -10,5 C 0,0 C 87 % 99 % 1041,2 hPa 0,0 l/m 0,0 km/h (0 Bft) N 0,00 h -11,2 C -10,5 C 0,0 km/h (0 Bft)
08.02.2023 03:00 -10,2 C 3,2 C 56,7 C -10,8 C -11,9 C 0,0 C 87 % 99 % 1040,8 hPa 0,0 l/m 0,0 km/h (0 Bft) N 0,00 h -12,0 C -11,9 C 0,0 km/h (0 Bft)
08.02.2023 04:00 -10,9 C 3,2 C 52,6 C -11,4 C -12,5 C 0,0 C 87 % 99 % 1040,6 hPa 0,0 l/m 0,0 km/h (0 Bft) N 0,00 h -12,6 C -12,5 C 0,0 km/h (0 Bft)
08.02.2023 05:00 -11,4 C 3,1 C 50,0 C -11,9 C -12,9 C 0,0 C 87 % 99 % 1040,6 hPa 0,0 l/m 0,0 km/h (0 Bft) N 0,00 h -13,1 C -12,9 C 0,0 km/h (0 Bft)
08.02.2023 06:00 -11,6 C 3,1 C 48,2 C -12,1 C -13,1 C 0,0 C 87 % 99 % 1040,6 hPa 0,0 l/m 0,0 km/h (0 Bft) N 0,00 h -13,4 C -13,1 C 0,0 km/h (0 Bft)
08.02.2023 07:00 -11,9 C 3,1 C 46,8 C -12,4 C -13,4 C 0,0 C 87 % 99 % 1041,2 hPa 0,0 l/m 0,0 km/h (0 Bft) N 0,00 h -13,6 C -13,4 C 0,0 km/h (0 Bft)
08.02.2023 08:00 -11,6 C 3,1 C 49,5 C -11,8 C -12,1 C 0,0 C 87 % 99 % 1041,2 hPa 0,0 l/m 0,0 km/h (0 Bft) N 0,00 h -13,3 C -12,1 C 0,0 km/h (0 Bft)
08.02.2023 09:00 -10,1 C 3,1 C 56,3 C -9,4 C -9,4 C 0,7 C 89 % 99 % 1041,2 hPa 0,0 l/m 0,0 km/h (0 Bft) N 0,00 h -11,6 C -9,4 C 0,0 km/h (0 Bft)
08.02.2023 10:00 -7,1 C 3,1 C 69,5 C -5,4 C -5,4 C 1,7 C 89 % 99 % 1041,2 hPa 0,0 l/m 0,0 km/h (0 Bft) N 0,00 h -8,6 C -5,4 C 0,0 km/h (0 Bft)
08.02.2023 11:00 -4,0 C 3,1 C 73,0 C 0,0 C 0,0 C 4,0 C 89 % 99 % 1041,2 hPa 0,0 l/m 0,0 km/h (0 Bft) N 0,75 h -5,5 C 0,0 C 0,0 km/h (0 Bft)
08.02.2023 12:00 -0,2 C 2,8 C 25,1 C 3,7 C 3,7 C 3,9 C 85 % 99 % 1041,2 hPa 0,0 l/m 0,0 km/h (0 Bft) N 1,00 h -2,4 C 3,7 C 0,0 km/h (0 Bft)
08.02.2023 13:00 0,8 C 2,8 C 9,5 C 6,3 C 6,3 C 5,4 C 73 % 99 % 1041,2 hPa 0,7 l/m 0,9 km/h (0 Bft) O-NO 1,00 h -3,4 C 6,3 C 1,1 km/h (1 Bft)
08.02.2023 14:00 1,3 C 2,8 C 10,9 C 7,0 C 7,0 C 5,7 C 70 % 99 % 1041,2 hPa 0,0 l/m 1,1 km/h (1 Bft) NO 1,00 h -3,7 C 7,0 C 1,8 km/h (1 Bft)
08.02.2023 15:00 1,2 C 2,8 C 12,9 C 5,9 C 5,9 C 4,7 C 69 % 99 % 1041,2 hPa 0,0 l/m 1,2 km/h (1 Bft) O-NO 1,00 h -3,8 C 5,9 C 1,9 km/h (1 Bft)
08.02.2023 16:00 0,5 C 2,8 C 10,5 C 2,7 C 2,7 C 2,2 C 68 % 99 % 1041,2 hPa 0,0 l/m 0,2 km/h (0 Bft) N 1,00 h -4,7 C 2,7 C 0,7 km/h (0 Bft)
08.02.2023 17:00 -1,1 C 2,8 C 55,5 C -1,4 C -2,2 C 0,0 C 71 % 99 % 1041,2 hPa 0,0 l/m 0,2 km/h (0 Bft) N 0,00 h -5,6 C -2,2 C 0,4 km/h (0 Bft)
08.02.2023 18:00 -2,0 C 2,8 C 67,4 C -2,5 C -3,4 C 0,0 C 75 % 91 % 1041,2 hPa 0,0 l/m 1,4 km/h (1 Bft) NO 0,00 h -5,9 C -3,4 C 2,4 km/h (1 Bft)
08.02.2023 19:00 -2,9 C 2,8 C 73,0 C -3,3 C -4,3 C 0,0 C 76 % 99 % 1041,2 hPa 0,0 l/m 0,1 km/h (0 Bft) N 0,00 h -6,5 C -4,3 C 0,0 km/h (0 Bft)
08.02.2023 20:00 -4,5 C 2,9 C 73,0 C -5,0 C -5,9 C 0,0 C 79 % 99 % 1041,2 hPa 0,0 l/m 0,0 km/h (0 Bft) N 0,00 h -7,6 C -5,9 C 0,2 km/h (0 Bft)
08.02.2023 21:00 -5,8 C 3,0 C 72,8 C -6,4 C -7,4 C 0,0 C 81 % 99 % 1041,2 hPa 0,0 l/m 0,0 km/h (0 Bft) N 0,00 h -8,6 C -7,4 C 0,0 km/h (0 Bft)
08.02.2023 22:00 -7,0 C 3,1 C 69,1 C -7,6 C -8,6 C 0,0 C 83 % 99 % 1039,7 hPa 0,0 l/m 0,0 km/h (0 Bft) N 0,00 h -9,5 C -8,6 C 0,0 km/h (0 Bft)
08.02.2023 23:00 -8,1 C 3,1 C 64,3 C -8,6 C -9,7 C 0,0 C 84 % 99 % 1036,7 hPa 0,0 l/m 0,0 km/h (0 Bft) N 0,00 h -10,4 C -9,7 C 0,0 km/h (0 Bft)
09.02.2023 00:00 -8,8 C 3,2 C 60,5 C -9,2 C -10,3 C 0,0 C 84 % 99 % 1036,6 hPa 0,0 l/m 0,0 km/h (0 Bft) N 0,00 h -10,9 C -10,3 C 0,0 km/h (0 Bft)
09.02.2023 01:00 -9,3 C 3,2 C 57,8 C -9,9 C -10,8 C 0,0 C 85 % 99 % 1036,6 hPa 0,0 l/m 0,0 km/h (0 Bft) N 0,00 h -11,4 C -10,8 C 0,0 km/h (0 Bft)
09.02.2023 02:00 -9,8 C 3,1 C 56,9 C -10,3 C -11,2 C 0,0 C 85 % 99 % 1036,6 hPa 0,0 l/m 0,0 km/h (0 Bft) N 0,00 h -11,9 C -11,2 C 0,0 km/h (0 Bft)
09.02.2023 03:00 -10,2 C 3,1 C 53,8 C -10,7 C -11,7 C 0,0 C 86 % 99 % 1036,6 hPa 0,0 l/m 0,0 km/h (0 Bft) N 0,00 h -12,1 C -11,7 C 0,0 km/h (0 Bft)
09.02.2023 04:00 -10,5 C 3,1 C 50,5 C -11,0 C -12,0 C 0,0 C 86 % 99 % 1036,6 hPa 0,0 l/m 0,0 km/h (0 Bft) N 0,00 h -12,4 C -12,0 C 0,0 km/h (0 Bft)
09.02.2023 05:00 -10,8 C 3,1 C 49,8 C -11,3 C -12,3 C 0,0 C 86 % 99 % 1036,6 hPa 0,0 l/m 0,0 km/h (0 Bft) N 0,00 h -12,7 C -12,3 C 0,0 km/h (0 Bft)
09.02.2023 06:00 -10,9 C 3,0 C 48,8 C -11,4 C -12,4 C 0,0 C 86 % 99 % 1036,0 hPa 0,0 l/m 0,0 km/h (0 Bft) N 0,00 h -12,8 C -12,4 C 0,0 km/h (0 Bft)
09.02.2023 07:00 -11,0 C 3,0 C 48,8 C -11,5 C -12,4 C 0,0 C 86 % 99 % 1034,8 hPa 0,0 l/m 0,0 km/h (0 Bft) N 0,00 h -12,9 C -12,4 C 0,0 km/h (0 Bft)
09.02.2023 08:00 -10,3 C 3,0 C 53,2 C -10,3 C -10,5 C 0,0 C 87 % 99 % 1034,8 hPa 0,0 l/m 0,0 km/h (0 Bft) N 0,00 h -12,0 C -10,5 C 0,0 km/h (0 Bft)
09.02.2023 09:00 -8,9 C 2,9 C 59,1 C -8,0 C -8,0 C 0,9 C 88 % 99 % 1034,8 hPa 0,0 l/m 0,0 km/h (0 Bft) N 0,00 h -10,5 C -8,0 C 0,0 km/h (0 Bft)
09.02.2023 10:00 -5,7 C 2,8 C 70,2 C -4,0 C -4,0 C 1,7 C 89 % 99 % 1034,8 hPa 0,0 l/m 0,0 km/h (0 Bft) N 0,00 h -7,2 C -4,0 C 0,0 km/h (0 Bft)
09.02.2023 11:00 -2,0 C 2,7 C 73,0 C 0,6 C 0,6 C 2,6 C 88 % 99 % 1034,8 hPa 0,0 l/m 0,0 km/h (0 Bft) N 0,17 h -3,7 C 0,6 C 0,0 km/h (0 Bft)
09.02.2023 12:00 1,1 C 2,7 C 57,0 C 5,6 C 5,6 C 4,5 C 75 % 99 % 1034,8 hPa 0,0 l/m 0,3 km/h (0 Bft) N 0,83 h -2,9 C 5,6 C 1,1 km/h (1 Bft)
09.02.2023 13:00 2,9 C 2,6 C 10,5 C 8,5 C 8,5 C 5,6 C 63 % 99 % 1033,6 hPa 0,0 l/m 1,1 km/h (1 Bft) S-SO 1,00 h -3,5 C 8,5 C 3,5 km/h (1 Bft)
09.02.2023 14:00 4,5 C 2,6 C 16,8 C 9,8 C 9,8 C 5,4 C 54 % 76 % 1032,7 hPa 0,0 l/m 0,7 km/h (0 Bft) SW 1,00 h -3,9 C 9,8 C 1,5 km/h (1 Bft)
09.02.2023 15:00 3,7 C 2,6 C 19,8 C 7,8 C 7,4 C 4,3 C 55 % 99 % 1032,7 hPa 0,0 l/m 0,2 km/h (0 Bft) N 0,92 h -4,5 C 7,4 C 0,4 km/h (0 Bft)
09.02.2023 16:00 2,8 C 2,6 C 15,1 C 4,0 C 3,9 C 1,3 C 57 % 99 % 1032,6 hPa 0,0 l/m 0,1 km/h (0 Bft) N 0,50 h -4,8 C 3,9 C 0,1 km/h (0 Bft)
09.02.2023 17:00 0,1 C 2,7 C 55,4 C -0,5 C -1,8 C 0,0 C 63 % 99 % 1032,6 hPa 0,0 l/m 0,0 km/h (0 Bft) N 0,00 h -6,1 C -1,8 C 0,0 km/h (0 Bft)
09.02.2023 18:00 -2,0 C 2,7 C 73,0 C -2,6 C -3,7 C 0,0 C 72 % 99 % 1032,6 hPa 0,0 l/m 0,0 km/h (0 Bft) N 0,00 h -6,4 C -3,7 C 0,0 km/h (0 Bft)
09.02.2023 19:00 -2,9 C 2,7 C 73,0 C -3,4 C -4,5 C 0,0 C 76 % 99 % 1032,6 hPa 0,0 l/m 0,0 km/h (0 Bft) N 0,00 h -6,5 C -4,5 C 0,0 km/h (0 Bft)
09.02.2023 20:00 -3,1 C 2,7 C 73,0 C -3,5 C -4,4 C 0,0 C 78 % 99 % 1032,6 hPa 0,0 l/m 0,0 km/h (0 Bft) N 0,00 h -6,5 C -4,4 C 0,0 km/h (0 Bft)
09.02.2023 21:00 -3,2 C 2,7 C 73,0 C -3,6 C -4,4 C 0,0 C 78 % 99 % 1032,6 hPa 0,0 l/m 0,0 km/h (0 Bft) N 0,00 h -6,5 C -4,4 C 0,0 km/h (0 Bft)
09.02.2023 22:00 -2,9 C 2,7 C 73,0 C -3,4 C -4,4 C 0,0 C 77 % 99 % 1032,6 hPa 0,0 l/m 0,0 km/h (0 Bft) N 0,00 h -6,4 C -4,4 C 0,0 km/h (0 Bft)
09.02.2023 23:00 -3,1 C 2,7 C 73,0 C -3,6 C -4,4 C 0,0 C 78 % 99 % 1032,6 hPa 0,0 l/m 0,0 km/h (0 Bft) N 0,00 h -6,5 C -4,4 C 0,0 km/h (0 Bft)
10.02.2023 00:00 -2,6 C 2,7 C 73,0 C -3,2 C -4,4 C 0,0 C 76 % 99 % 1033,0 hPa 0,0 l/m 0,0 km/h (0 Bft) N 0,00 h -6,2 C -4,4 C 0,0 km/h (0 Bft)
10.02.2023 01:00 -3,1 C 2,7 C 73,0 C -3,5 C -4,4 C 0,0 C 76 % 99 % 1034,6 hPa 0,0 l/m 0,0 km/h (0 Bft) N 0,00 h -6,7 C -4,4 C 0,0 km/h (0 Bft)
10.02.2023 02:00 -3,8 C 2,7 C 73,0 C -0,9 C -1,0 C 2,9 C 77 % 99 % 1034,7 hPa 0,0 l/m 0,0 km/h (0 Bft) N 0,00 h -7,2 C -1,0 C 0,0 km/h (0 Bft)
10.02.2023 03:00 -4,0 C 2,7 C 73,0 C 0,0 C 0,0 C 4,0 C 78 % 99 % 1035,1 hPa 0,0 l/m 0,0 km/h (0 Bft) N 0,00 h -7,2 C 0,0 C 0,0 km/h (0 Bft)
10.02.2023 04:00 -2,7 C 2,7 C 54,8 C 0,0 C 0,0 C 2,7 C 78 % 74 % 1035,1 hPa 0,0 l/m 0,0 km/h (0 Bft) N 0,00 h -6,0 C 0,0 C 0,0 km/h (0 Bft)
10.02.2023 05:00 -2,0 C 2,8 C 73,0 C -1,8 C -1,8 C 0,2 C 78 % 99 % 1035,1 hPa 0,0 l/m 0,2 km/h (0 Bft) N 0,00 h -5,3 C -1,8 C 1,0 km/h (0 Bft)
10.02.2023 06:00 -1,7 C 2,8 C 67,4 C -1,6 C -1,6 C 0,1 C 81 % 91 % 1035,1 hPa 0,0 l/m 0,4 km/h (0 Bft) N 0,00 h -4,6 C -1,6 C 1,2 km/h (1 Bft)
10.02.2023 07:00 -1,4 C 2,8 C 73,0 C -1,4 C -1,4 C 0,0 C 82 % 99 % 1035,1 hPa 0,0 l/m 0,2 km/h (0 Bft) N 0,00 h -4,1 C -1,4 C 0,5 km/h (0 Bft)
10.02.2023 08:00 -0,8 C 2,8 C 61,9 C -0,6 C -0,6 C 0,3 C 82 % 99 % 1035,1 hPa 0,0 l/m 0,0 km/h (0 Bft) N 0,00 h -3,5 C -0,6 C 0,2 km/h (0 Bft)
10.02.2023 09:00 -0,2 C 2,8 C 5,9 C 0,6 C 0,6 C 0,8 C 82 % 99 % 1035,1 hPa 0,0 l/m 0,5 km/h (0 Bft) N 0,00 h -2,9 C 0,6 C 1,6 km/h (1 Bft)
10.02.2023 10:00 0,7 C 2,9 C 13,7 C 1,9 C 1,9 C 1,2 C 82 % 99 % 1035,1 hPa 0,0 l/m 0,6 km/h (0 Bft) S 0,00 h -2,0 C 1,9 C 1,3 km/h (1 Bft)
10.02.2023 11:00 1,3 C 2,9 C 16,4 C 2,9 C 2,9 C 1,6 C 83 % 99 % 1035,1 hPa 0,0 l/m 0,7 km/h (0 Bft) S 0,00 h -1,3 C 2,9 C 2,5 km/h (1 Bft)
10.02.2023 12:00 2,0 C 2,9 C 20,2 C 1,8 C 0,7 C 0,3 C 82 % 99 % 1035,1 hPa 0,0 l/m 0,0 km/h (0 Bft) N 0,00 h -0,8 C 0,7 C 0,0 km/h (0 Bft)
10.02.2023 13:00 3,0 C 2,8 C 24,2 C 2,0 C 0,0 C 0,0 C 81 % 99 % 1035,1 hPa 0,0 l/m 0,0 km/h (0 Bft) N 0,00 h -0,1 C 0,0 C 0,0 km/h (0 Bft)
10.02.2023 14:00 4,0 C 2,8 C 24,2 C 5,6 C 4,4 C 2,1 C 77 % 99 % 1035,1 hPa 0,0 l/m 1,9 km/h (1 Bft) W-SW 0,40 h 0,4 C 4,4 C 3,2 km/h (1 Bft)
10.02.2023 15:00 4,5 C 2,8 C 24,2 C 7,3 C 7,3 C 2,7 C 74 % 99 % 1036,1 hPa 0,0 l/m 3,0 km/h (1 Bft) SW 0,75 h 0,3 C 7,2 C 4,5 km/h (1 Bft)
10.02.2023 16:00 4,1 C 2,8 C 21,9 C 4,7 C 4,5 C 0,7 C 74 % 99 % 1036,1 hPa 0,0 l/m 0,2 km/h (0 Bft) N 0,18 h -0,1 C 4,5 C 0,1 km/h (0 Bft)
10.02.2023 17:00 2,3 C 2,9 C 11,7 C 1,8 C 0,7 C 0,0 C 76 % 99 % 1036,1 hPa 0,0 l/m 0,0 km/h (0 Bft) N 0,00 h -1,5 C 0,7 C 0,0 km/h (0 Bft)
10.02.2023 18:00 0,3 C 3,1 C 52,5 C -0,2 C -1,3 C 0,0 C 79 % 99 % 1036,1 hPa 0,0 l/m 0,0 km/h (0 Bft) N 0,00 h -2,9 C -1,3 C 0,0 km/h (0 Bft)
10.02.2023 19:00 0,8 C 2,9 C 16,1 C 0,5 C 0,0 C 0,0 C 82 % 99 % 1036,1 hPa 0,0 l/m 0,3 km/h (0 Bft) N 0,00 h -1,9 C 0,0 C 0,5 km/h (0 Bft)
10.02.2023 20:00 1,0 C 2,9 C 3,1 C 0,6 C -0,2 C 0,0 C 80 % 99 % 1036,2 hPa 0,0 l/m 0,5 km/h (0 Bft) N 0,00 h -2,1 C -0,2 C 0,3 km/h (0 Bft)
10.02.2023 21:00 0,6 C 2,9 C 0,8 C 0,4 C -0,2 C 0,0 C 80 % 99 % 1036,1 hPa 0,0 l/m 0,8 km/h (0 Bft) SO 0,00 h -2,4 C -0,2 C 1,5 km/h (1 Bft)
10.02.2023 22:00 0,6 C 2,9 C 2,1 C 0,4 C 0,1 C 0,0 C 81 % 99 % 1036,0 hPa 0,0 l/m 0,9 km/h (0 Bft) S 0,00 h -2,3 C 0,1 C 3,6 km/h (1 Bft)
10.02.2023 23:00 0,8 C 2,9 C 2,3 C 0,6 C 0,3 C 0,0 C 81 % 99 % 1036,0 hPa 0,0 l/m 1,0 km/h (0 Bft) O-SO 0,00 h -2,1 C 0,3 C 1,8 km/h (1 Bft)
11.02.2023 00:00 0,9 C 2,9 C 3,4 C 0,6 C -0,1 C 0,0 C 81 % 99 % 1036,0 hPa 0,0 l/m 2,2 km/h (1 Bft) O-SO 0,00 h -1,9 C -0,1 C 7,0 km/h (2 Bft)
11.02.2023 01:00 1,1 C 2,9 C 4,0 C 0,9 C 0,5 C 0,0 C 81 % 99 % 1034,3 hPa 0,0 l/m 1,2 km/h (1 Bft) W 0,00 h -1,7 C 0,5 C 1,8 km/h (1 Bft)
11.02.2023 02:00 1,5 C 2,9 C 7,6 C 1,4 C 1,1 C 0,0 C 81 % 99 % 1034,1 hPa 0,0 l/m 1,3 km/h (1 Bft) N 0,00 h -1,4 C 1,1 C 2,7 km/h (1 Bft)
11.02.2023 03:00 2,0 C 2,9 C 11,7 C 1,9 C 1,8 C 0,0 C 79 % 99 % 1034,1 hPa 0,0 l/m 1,7 km/h (1 Bft) S 0,00 h -1,2 C 1,8 C 4,0 km/h (1 Bft)
11.02.2023 04:00 2,4 C 2,9 C 18,1 C 2,5 C 2,5 C 0,1 C 78 % 99 % 1033,0 hPa 0,0 l/m 2,2 km/h (1 Bft) W 0,00 h -1,0 C 2,5 C 3,0 km/h (1 Bft)
11.02.2023 05:00 2,6 C 2,8 C 19,4 C 2,7 C 2,6 C 0,1 C 78 % 99 % 1032,3 hPa 0,0 l/m 2,3 km/h (1 Bft) O 0,00 h -0,7 C 2,6 C 5,7 km/h (1 Bft)
11.02.2023 06:00 2,8 C 2,8 C 15,6 C 3,0 C 3,0 C 0,2 C 78 % 91 % 1031,9 hPa 0,0 l/m 1,5 km/h (1 Bft) S 0,00 h -0,6 C 3,0 C 2,0 km/h (1 Bft)
11.02.2023 07:00 3,1 C 2,8 C 18,3 C 3,3 C 3,3 C 0,2 C 77 % 99 % 1031,9 hPa 0,0 l/m 1,3 km/h (1 Bft) SO 0,00 h -0,5 C 3,3 C 1,8 km/h (1 Bft)
11.02.2023 08:00 3,3 C 2,8 C 16,0 C 3,7 C 3,7 C 0,4 C 77 % 76 % 1031,5 hPa 0,0 l/m 1,5 km/h (1 Bft) S 0,00 h -0,4 C 3,7 C 3,6 km/h (1 Bft)
11.02.2023 09:00 3,5 C 2,8 C 22,7 C 3,9 C 3,9 C 0,4 C 77 % 99 % 1031,3 hPa 0,0 l/m 2,5 km/h (1 Bft) SW 0,00 h -0,1 C 3,9 C 4,5 km/h (1 Bft)
11.02.2023 10:00 3,7 C 2,9 C 24,0 C 4,5 C 4,5 C 0,9 C 78 % 99 % 1031,5 hPa 0,0 l/m 2,5 km/h (1 Bft) SW 0,00 h 0,3 C 4,5 C 4,2 km/h (1 Bft)
11.02.2023 11:00 4,1 C 2,9 C 24,2 C 4,8 C 4,8 C 0,8 C 80 % 99 % 1031,8 hPa 0,0 l/m 3,6 km/h (1 Bft) SW 0,00 h 0,9 C 4,7 C 4,5 km/h (1 Bft)
11.02.2023 12:00 4,7 C 2,9 C 24,2 C 5,5 C 5,5 C 0,8 C 80 % 99 % 1032,0 hPa 0,0 l/m 4,2 km/h (1 Bft) SW 0,00 h 1,6 C 5,2 C 7,8 km/h (2 Bft)
11.02.2023 13:00 5,1 C 3,0 C 24,2 C 5,4 C 5,4 C 0,3 C 80 % 99 % 1032,0 hPa 0,0 l/m 4,7 km/h (1 Bft) SW 0,00 h 2,0 C 4,8 C 6,0 km/h (2 Bft)
11.02.2023 14:00 5,2 C 3,1 C 24,2 C 5,8 C 5,8 C 0,5 C 81 % 99 % 1031,4 hPa 0,0 l/m 3,5 km/h (1 Bft) W-SW 0,00 h 2,2 C 5,7 C 3,8 km/h (1 Bft)
11.02.2023 15:00 5,5 C 3,1 C 24,2 C 6,0 C 6,0 C 0,5 C 81 % 99 % 1031,3 hPa 0,0 l/m 1,5 km/h (1 Bft) S 0,00 h 2,5 C 6,0 C 2,7 km/h (1 Bft)
11.02.2023 16:00 5,3 C 3,2 C 24,2 C 5,8 C 5,8 C 0,4 C 81 % 99 % 1031,7 hPa 0,0 l/m 1,0 km/h (0 Bft) O 0,00 h 2,3 C 5,8 C 1,6 km/h (1 Bft)
11.02.2023 17:00 5,2 C 3,4 C 24,2 C 5,5 C 5,5 C 0,3 C 82 % 99 % 1031,9 hPa 0,0 l/m 1,1 km/h (1 Bft) SW 0,17 h 2,4 C 5,5 C 2,1 km/h (1 Bft)
11.02.2023 18:00 5,0 C 3,7 C 24,2 C 5,0 C 4,9 C 0,0 C 84 % 99 % 1032,2 hPa 0,0 l/m 0,9 km/h (0 Bft) SW 0,00 h 2,5 C 4,9 C 1,7 km/h (1 Bft)
11.02.2023 19:00 4,8 C 3,7 C 24,2 C 4,8 C 4,7 C 0,0 C 87 % 99 % 1032,6 hPa 0,0 l/m 0,0 km/h (0 Bft) N 0,00 h 2,8 C 4,7 C 0,0 km/h (0 Bft)
11.02.2023 20:00 4,8 C 3,7 C 24,2 C 4,8 C 4,7 C 0,0 C 88 % 99 % 1033,0 hPa 0,0 l/m 0,0 km/h (0 Bft) N 0,00 h 3,0 C 4,7 C 0,0 km/h (0 Bft)
11.02.2023 21:00 4,7 C 3,8 C 24,2 C 4,7 C 4,7 C 0,0 C 88 % 99 % 1033,4 hPa 0,0 l/m 0,0 km/h (0 Bft) N 0,00 h 2,9 C 4,7 C 0,0 km/h (0 Bft)
11.02.2023 22:00 4,7 C 3,8 C 21,7 C 4,7 C 4,7 C 0,0 C 89 % 99 % 1034,6 hPa 0,0 l/m 0,0 km/h (0 Bft) N 0,00 h 3,0 C 4,7 C 0,0 km/h (0 Bft)
11.02.2023 23:00 4,7 C 4,0 C 21,8 C 4,7 C 4,7 C 0,0 C 89 % 99 % 1034,9 hPa 0,0 l/m 0,0 km/h (0 Bft) N 0,00 h 3,0 C 4,7 C 0,0 km/h (0 Bft)
12.02.2023 00:00 4,5 C 4,0 C 21,8 C 3,4 C 1,2 C 0,0 C 89 % 91 % 1035,3 hPa 0,0 l/m 0,0 km/h (0 Bft) N 0,00 h 2,9 C 1,2 C 0,0 km/h (0 Bft)
12.02.2023 01:00 4,5 C 4,1 C 19,4 C 3,0 C 0,0 C 0,0 C 89 % 99 % 1035,2 hPa 0,0 l/m 0,0 km/h (0 Bft) N 0,00 h 2,8 C 0,0 C 0,0 km/h (0 Bft)
12.02.2023 02:00 4,4 C 4,2 C 15,2 C 3,3 C 0,9 C 0,2 C 89 % 99 % 1035,1 hPa 0,0 l/m 0,2 km/h (0 Bft) SW 0,00 h 2,7 C 0,9 C 0,3 km/h (0 Bft)
12.02.2023 03:00 4,3 C 4,2 C 16,8 C 5,4 C 5,4 C 1,1 C 89 % 99 % 1035,5 hPa 0,0 l/m 1,0 km/h (0 Bft) W-SW 0,00 h 2,6 C 5,4 C 1,8 km/h (1 Bft)
12.02.2023 04:00 4,3 C 4,3 C 17,3 C 5,4 C 5,4 C 1,1 C 89 % 99 % 1035,3 hPa 0,0 l/m 1,6 km/h (1 Bft) W-SW 0,00 h 2,6 C 5,4 C 2,7 km/h (1 Bft)
12.02.2023 05:00 4,1 C 4,4 C 18,1 C 5,4 C 5,4 C 1,3 C 89 % 99 % 1035,4 hPa 0,0 l/m 0,8 km/h (0 Bft) SW 0,00 h 2,5 C 5,4 C 1,4 km/h (1 Bft)
12.02.2023 06:00 4,0 C 4,5 C 15,4 C 5,4 C 5,4 C 1,3 C 89 % 99 % 1035,8 hPa 0,0 l/m 0,6 km/h (0 Bft) SW 0,00 h 2,4 C 5,4 C 0,9 km/h (0 Bft)
12.02.2023 07:00 3,9 C 4,5 C 16,0 C 5,3 C 5,3 C 1,4 C 89 % 99 % 1035,8 hPa 0,0 l/m 0,0 km/h (0 Bft) N 0,33 h 2,2 C 5,3 C 0,0 km/h (0 Bft)
12.02.2023 08:00 3,8 C 4,5 C 15,5 C 5,3 C 5,3 C 1,5 C 89 % 99 % 1035,8 hPa 0,0 l/m 0,1 km/h (0 Bft) N 0,67 h 2,2 C 5,3 C 0,2 km/h (0 Bft)
12.02.2023 09:00 3,9 C 4,6 C 16,9 C 5,6 C 5,6 C 1,8 C 89 % 99 % 1035,8 hPa 0,7 l/m 0,0 km/h (0 Bft) N 0,00 h 2,2 C 5,6 C 0,0 km/h (0 Bft)
12.02.2023 10:00 4,2 C 4,7 C 22,2 C 6,6 C 6,6 C 2,4 C 89 % 99 % 1036,8 hPa 0,0 l/m 0,0 km/h (0 Bft) N 0,00 h 2,5 C 6,6 C 0,2 km/h (0 Bft)
12.02.2023 11:00 4,7 C 4,8 C 23,9 C 7,3 C 7,3 C 2,6 C 89 % 99 % 1036,9 hPa 0,0 l/m 0,0 km/h (0 Bft) N 0,00 h 3,0 C 7,3 C 0,0 km/h (0 Bft)
12.02.2023 12:00 4,7 C 4,9 C 24,2 C 7,1 C 7,1 C 2,5 C 89 % 99 % 1036,9 hPa 0,0 l/m 1,1 km/h (1 Bft) SW 0,00 h 3,0 C 7,1 C 1,1 km/h (1 Bft)
12.02.2023 13:00 5,0 C 5,0 C 24,2 C 8,0 C 8,0 C 3,0 C 89 % 99 % 1036,9 hPa 0,0 l/m 0,6 km/h (0 Bft) S 0,42 h 3,3 C 8,0 C 1,1 km/h (0 Bft)
12.02.2023 14:00 5,2 C 5,1 C 24,2 C 7,6 C 7,6 C 2,4 C 89 % 99 % 1036,9 hPa 0,0 l/m 1,2 km/h (1 Bft) S 0,00 h 3,6 C 7,6 C 1,6 km/h (1 Bft)
12.02.2023 15:00 5,2 C 5,2 C 24,2 C 7,7 C 7,7 C 2,5 C 89 % 99 % 1037,1 hPa 0,0 l/m 0,2 km/h (0 Bft) N 0,50 h 3,6 C 7,7 C 0,7 km/h (0 Bft)
12.02.2023 16:00 5,3 C 5,3 C 24,2 C 7,5 C 7,5 C 2,2 C 89 % 99 % 1037,1 hPa 0,0 l/m 0,1 km/h (0 Bft) N 1,00 h 3,6 C 7,5 C 0,2 km/h (0 Bft)
12.02.2023 17:00 4,9 C 5,4 C 22,9 C 6,7 C 6,7 C 1,7 C 89 % 99 % 1037,3 hPa 0,0 l/m 0,0 km/h (0 Bft) N 0,17 h 3,3 C 6,7 C 0,0 km/h (0 Bft)
12.02.2023 18:00 4,4 C 5,4 C 20,1 C 6,1 C 6,1 C 1,7 C 89 % 99 % 1037,8 hPa 0,0 l/m 0,0 km/h (0 Bft) N 0,00 h 2,7 C 6,1 C 0,0 km/h (0 Bft)
12.02.2023 19:00 3,9 C 5,4 C 17,2 C 5,8 C 5,8 C 1,9 C 89 % 99 % 1038,0 hPa 0,0 l/m 0,0 km/h (0 Bft) N 0,00 h 2,2 C 5,8 C 0,0 km/h (0 Bft)
12.02.2023 20:00 3,7 C 5,5 C 16,0 C 5,6 C 5,6 C 1,9 C 89 % 99 % 1037,9 hPa 0,0 l/m 0,0 km/h (0 Bft) N 0,00 h 2,0 C 5,6 C 0,0 km/h (0 Bft)
12.02.2023 21:00 3,6 C 5,5 C 13,3 C 5,5 C 5,5 C 1,9 C 89 % 99 % 1038,0 hPa 0,0 l/m 0,0 km/h (0 Bft) N 0,00 h 2,0 C 5,5 C 0,0 km/h (0 Bft)
12.02.2023 22:00 3,5 C 5,5 C 12,2 C 5,4 C 5,4 C 1,9 C 89 % 99 % 1038,0 hPa 0,0 l/m 0,0 km/h (0 Bft) N 0,00 h 1,8 C 5,4 C 0,0 km/h (0 Bft)
12.02.2023 23:00 3,6 C 5,6 C 11,1 C 5,6 C 5,6 C 2,0 C 89 % 99 % 1038,1 hPa 0,0 l/m 0,0 km/h (0 Bft) N 0,00 h 2,0 C 5,6 C 0,0 km/h (0 Bft)
Min-Datum _ 08.02.23 09.02.23 06.02.23 08.02.23 08.02.23 06.02.23 09.02.23 06.02.23 11.02.23 - 06.02.23 - - 08.02.23 08.02.23 06.02.23
_ Min-Zeit 07:55 12:50 08:15 07:55 07:15 00:00 15:05 08:15 08:21 - 00:00 - - 07:55 07:15 00:00
Minimum _ -12,1 C 2,6 C 0,0 C -12,6 C -13,5 C 0,0 C 53 % 0 % 1031,3 hPa - 0,0 km/h (0 Bft) - - -13,8 C -13,5 C 0,0 km/h (0 Bft)
Max-Datum _ 11.02.23 12.02.23 06.02.23 09.02.23 09.02.23 07.02.23 07.02.23 06.02.23 07.02.23 07.02.23 11.02.23 - 08.02.23 12.02.23 09.02.23 11.02.23
_ Max-Zeit 15:10 22:55 00:00 14:11 14:11 13:20 13:05 00:00 09:25 14:00 12:41 - 12:26 16:11 14:11 09:05
Maximum _ 5,5 C 5,6 C 73,0 C 10,0 C 10,0 C 6,6 C 90 % 99 % 1041,8 hPa 0,7 l/m 5,6 km/h
SW (1 Bft)
- 0,25 h 3,7 C 10,0 C 16,3 km/h
SW (3 Bft)
Durchschnitt _ -1,8 C 3,5 C 41,3 C -1,1 C -1,6 C 0,9 C 83 % 98 % 1037,1 hPa #2,1 l/m 0,4 km/h (0 Bft) SW #19:15 h -4,3 C -1,6 C 0,7 km/h (0 Bft)
2023 www.wetterstation-wechselburg.de